sensor_id;sensor_type;location;lat;lon;timestamp;pressure;altitude;pressure_sealevel;temperature;humidity
44441;BME280;30146;52.268;20.944;2024-02-23T00:01:35;98323.89;;;8.51;63.75
44441;BME280;30146;52.268;20.944;2024-02-23T00:04:04;98322.30;;;8.53;63.69
44441;BME280;30146;52.268;20.944;2024-02-23T00:06:35;98322.09;;;8.54;63.73
44441;BME280;30146;52.268;20.944;2024-02-23T00:09:05;98318.69;;;8.54;63.53
44441;BME280;30146;52.268;20.944;2024-02-23T00:11:34;98322.73;;;8.55;63.81
44441;BME280;30146;52.268;20.944;2024-02-23T00:14:07;98316.96;;;8.55;63.67
44441;BME280;30146;52.268;20.944;2024-02-23T00:16:38;98320.82;;;8.56;63.60
44441;BME280;30146;52.268;20.944;2024-02-23T00:19:09;98323.55;;;8.56;63.52
44441;BME280;30146;52.268;20.944;2024-02-23T00:21:38;98315.84;;;8.58;63.74
44441;BME280;30146;52.268;20.944;2024-02-23T00:24:10;98313.27;;;8.58;63.63
44441;BME280;30146;52.268;20.944;2024-02-23T00:26:39;98320.02;;;8.60;63.86
44441;BME280;30146;52.268;20.944;2024-02-23T00:29:09;98318.80;;;8.61;63.61
44441;BME280;30146;52.268;20.944;2024-02-23T00:31:38;98318.45;;;8.61;63.71
44441;BME280;30146;52.268;20.944;2024-02-23T00:34:09;98318.38;;;8.63;63.87
44441;BME280;30146;52.268;20.944;2024-02-23T00:36:39;98314.45;;;8.63;63.67
44441;BME280;30146;52.268;20.944;2024-02-23T00:39:08;98310.17;;;8.63;63.62
44441;BME280;30146;52.268;20.944;2024-02-23T00:41:40;98311.74;;;8.63;63.68
44441;BME280;30146;52.268;20.944;2024-02-23T00:44:10;98309.36;;;8.63;63.72
44441;BME280;30146;52.268;20.944;2024-02-23T00:46:41;98303.05;;;8.63;63.66
44441;BME280;30146;52.268;20.944;2024-02-23T00:49:10;98299.14;;;8.63;63.72
44441;BME280;30146;52.268;20.944;2024-02-23T00:51:49;98293.66;;;8.63;63.70
44441;BME280;30146;52.268;20.944;2024-02-23T00:54:18;98297.91;;;8.64;63.75
44441;BME280;30146;52.268;20.944;2024-02-23T00:56:48;98299.73;;;8.65;63.58
44441;BME280;30146;52.268;20.944;2024-02-23T00:59:20;98293.42;;;8.65;63.69
44441;BME280;30146;52.268;20.944;2024-02-23T01:01:50;98280.30;;;8.66;63.56
44441;BME280;30146;52.268;20.944;2024-02-23T01:04:19;98287.80;;;8.66;63.71
44441;BME280;30146;52.268;20.944;2024-02-23T01:06:51;98285.40;;;8.66;63.88
44441;BME280;30146;52.268;20.944;2024-02-23T01:09:22;98271.08;;;8.67;63.69
44441;BME280;30146;52.268;20.944;2024-02-23T01:11:51;98281.13;;;8.67;63.89
44441;BME280;30146;52.268;20.944;2024-02-23T01:14:21;98272.10;;;8.66;63.85
44441;BME280;30146;52.268;20.944;2024-02-23T01:16:52;98270.39;;;8.67;63.73
44441;BME280;30146;52.268;20.944;2024-02-23T01:19:22;98267.52;;;8.66;63.59
44441;BME280;30146;52.268;20.944;2024-02-23T01:21:52;98269.94;;;8.65;63.67
44441;BME280;30146;52.268;20.944;2024-02-23T01:24:28;98265.18;;;8.64;63.57
44441;BME280;30146;52.268;20.944;2024-02-23T01:26:58;98266.18;;;8.65;63.84
44441;BME280;30146;52.268;20.944;2024-02-23T01:29:28;98257.34;;;8.65;63.82
44441;BME280;30146;52.268;20.944;2024-02-23T01:31:57;98260.39;;;8.65;63.69
44441;BME280;30146;52.268;20.944;2024-02-23T01:34:29;98262.62;;;8.65;63.82
44441;BME280;30146;52.268;20.944;2024-02-23T01:36:59;98267.20;;;8.65;63.91
44441;BME280;30146;52.268;20.944;2024-02-23T01:39:29;98277.20;;;8.67;63.85
44441;BME280;30146;52.268;20.944;2024-02-23T01:41:59;98263.26;;;8.66;63.94
44441;BME280;30146;52.268;20.944;2024-02-23T01:44:28;98270.05;;;8.66;63.89
44441;BME280;30146;52.268;20.944;2024-02-23T01:46:58;98265.80;;;8.67;63.87
44441;BME280;30146;52.268;20.944;2024-02-23T01:49:30;98269.50;;;8.67;63.85
44441;BME280;30146;52.268;20.944;2024-02-23T01:52:02;98276.12;;;8.69;63.83
44441;BME280;30146;52.268;20.944;2024-02-23T01:54:32;98270.43;;;8.71;63.98
44441;BME280;30146;52.268;20.944;2024-02-23T01:57:02;98260.71;;;8.71;63.96
44441;BME280;30146;52.268;20.944;2024-02-23T01:59:52;98268.98;;;8.73;63.87
44441;BME280;30146;52.268;20.944;2024-02-23T02:02:24;98265.06;;;8.73;64.01
44441;BME280;30146;52.268;20.944;2024-02-23T02:04:54;98268.11;;;8.74;63.95
44441;BME280;30146;52.268;20.944;2024-02-23T02:07:24;98257.05;;;8.73;64.00
44441;BME280;30146;52.268;20.944;2024-02-23T02:09:54;98251.23;;;8.74;63.96
44441;BME280;30146;52.268;20.944;2024-02-23T02:12:48;98249.84;;;8.75;64.20
44441;BME280;30146;52.268;20.944;2024-02-23T02:15:18;98248.27;;;8.76;64.00
44441;BME280;30146;52.268;20.944;2024-02-23T02:17:50;98241.44;;;8.77;63.99
44441;BME280;30146;52.268;20.944;2024-02-23T02:20:21;98239.52;;;8.77;64.13
44441;BME280;30146;52.268;20.944;2024-02-23T02:22:53;98239.86;;;8.77;64.16
44441;BME280;30146;52.268;20.944;2024-02-23T02:25:23;98239.66;;;8.78;64.08
44441;BME280;30146;52.268;20.944;2024-02-23T02:27:52;98238.14;;;8.78;64.04
44441;BME280;30146;52.268;20.944;2024-02-23T02:30:22;98234.93;;;8.77;64.07
44441;BME280;30146;52.268;20.944;2024-02-23T02:32:51;98236.63;;;8.78;64.00
44441;BME280;30146;52.268;20.944;2024-02-23T02:35:21;98235.95;;;8.78;64.09
44441;BME280;30146;52.268;20.944;2024-02-23T02:37:50;98236.98;;;8.77;64.18
44441;BME280;30146;52.268;20.944;2024-02-23T02:40:20;98233.56;;;8.77;64.40
44441;BME280;30146;52.268;20.944;2024-02-23T02:42:49;98234.23;;;8.78;64.27
44441;BME280;30146;52.268;20.944;2024-02-23T02:45:18;98231.20;;;8.77;64.26
44441;BME280;30146;52.268;20.944;2024-02-23T02:47:48;98234.44;;;8.77;64.36
44441;BME280;30146;52.268;20.944;2024-02-23T02:50:17;98232.05;;;8.77;64.47
44441;BME280;30146;52.268;20.944;2024-02-23T02:52:47;98231.55;;;8.77;64.40
44441;BME280;30146;52.268;20.944;2024-02-23T02:55:17;98239.05;;;8.76;64.44
44441;BME280;30146;52.268;20.944;2024-02-23T02:57:46;98244.49;;;8.77;64.43
44441;BME280;30146;52.268;20.944;2024-02-23T03:00:16;98240.94;;;8.76;64.47
44441;BME280;30146;52.268;20.944;2024-02-23T03:02:52;98234.48;;;8.76;64.33
44441;BME280;30146;52.268;20.944;2024-02-23T03:05:36;98239.25;;;8.76;64.44
44441;BME280;30146;52.268;20.944;2024-02-23T03:08:06;98242.27;;;8.77;64.55
44441;BME280;30146;52.268;20.944;2024-02-23T03:10:37;98240.64;;;8.80;64.70
44441;BME280;30146;52.268;20.944;2024-02-23T03:13:06;98239.69;;;8.82;64.66
44441;BME280;30146;52.268;20.944;2024-02-23T03:15:36;98243.27;;;8.82;64.91
44441;BME280;30146;52.268;20.944;2024-02-23T03:18:25;98247.79;;;8.84;64.91
44441;BME280;30146;52.268;20.944;2024-02-23T03:20:56;98245.08;;;8.84;65.06
44441;BME280;30146;52.268;20.944;2024-02-23T03:23:26;98252.56;;;8.84;65.21
44441;BME280;30146;52.268;20.944;2024-02-23T03:25:55;98255.87;;;8.82;65.14
44441;BME280;30146;52.268;20.944;2024-02-23T03:28:26;98259.40;;;8.79;65.32
44441;BME280;30146;52.268;20.944;2024-02-23T03:30:56;98259.48;;;8.77;65.67
44441;BME280;30146;52.268;20.944;2024-02-23T03:33:25;98259.77;;;8.73;65.89
44441;BME280;30146;52.268;20.944;2024-02-23T03:35:55;98265.96;;;8.72;66.07
44441;BME280;30146;52.268;20.944;2024-02-23T03:38:27;98268.30;;;8.68;66.20
44441;BME280;30146;52.268;20.944;2024-02-23T03:41:00;98266.52;;;8.65;66.54
44441;BME280;30146;52.268;20.944;2024-02-23T03:43:32;98268.46;;;8.63;66.81
44441;BME280;30146;52.268;20.944;2024-02-23T03:46:03;98270.84;;;8.59;66.63
44441;BME280;30146;52.268;20.944;2024-02-23T03:48:38;98270.54;;;8.52;66.84
44441;BME280;30146;52.268;20.944;2024-02-23T03:51:21;98278.23;;;8.47;67.02
44441;BME280;30146;52.268;20.944;2024-02-23T03:53:51;98279.02;;;8.43;67.37
44441;BME280;30146;52.268;20.944;2024-02-23T03:56:20;98285.60;;;8.39;67.44
44441;BME280;30146;52.268;20.944;2024-02-23T03:58:52;98283.20;;;8.35;67.53
44441;BME280;30146;52.268;20.944;2024-02-23T04:01:22;98291.16;;;8.31;67.79
44441;BME280;30146;52.268;20.944;2024-02-23T04:03:52;98293.11;;;8.28;68.12
44441;BME280;30146;52.268;20.944;2024-02-23T04:06:23;98294.36;;;8.26;68.44
44441;BME280;30146;52.268;20.944;2024-02-23T04:09:02;98293.56;;;8.25;68.61
44441;BME280;30146;52.268;20.944;2024-02-23T04:11:33;98296.55;;;8.22;68.66
44441;BME280;30146;52.268;20.944;2024-02-23T04:14:03;98302.33;;;8.22;68.98
44441;BME280;30146;52.268;20.944;2024-02-23T04:16:33;98305.58;;;8.22;69.04
44441;BME280;30146;52.268;20.944;2024-02-23T04:19:03;98302.70;;;8.21;69.08
44441;BME280;30146;52.268;20.944;2024-02-23T04:21:33;98302.90;;;8.20;69.23
44441;BME280;30146;52.268;20.944;2024-02-23T04:24:02;98306.02;;;8.19;69.47
44441;BME280;30146;52.268;20.944;2024-02-23T04:26:32;98309.45;;;8.18;69.74
44441;BME280;30146;52.268;20.944;2024-02-23T04:29:01;98316.33;;;8.16;69.60
44441;BME280;30146;52.268;20.944;2024-02-23T04:31:31;98318.26;;;8.14;69.79
44441;BME280;30146;52.268;20.944;2024-02-23T04:34:00;98317.13;;;8.12;70.08
44441;BME280;30146;52.268;20.944;2024-02-23T04:36:30;98316.13;;;8.11;70.20
44441;BME280;30146;52.268;20.944;2024-02-23T04:38:59;98319.04;;;8.11;70.35
44441;BME280;30146;52.268;20.944;2024-02-23T04:41:29;98317.85;;;8.11;70.42
44441;BME280;30146;52.268;20.944;2024-02-23T04:43:58;98320.76;;;8.10;70.55
44441;BME280;30146;52.268;20.944;2024-02-23T04:46:30;98318.95;;;8.08;70.54
44441;BME280;30146;52.268;20.944;2024-02-23T04:49:05;98325.33;;;8.05;70.64
44441;BME280;30146;52.268;20.944;2024-02-23T04:51:35;98326.77;;;8.04;70.86
44441;BME280;30146;52.268;20.944;2024-02-23T04:54:04;98331.91;;;8.02;70.90
44441;BME280;30146;52.268;20.944;2024-02-23T04:56:34;98333.11;;;8.02;71.14
44441;BME280;30146;52.268;20.944;2024-02-23T04:59:04;98337.76;;;8.00;71.06
44441;BME280;30146;52.268;20.944;2024-02-23T05:01:36;98342.02;;;8.00;71.36
44441;BME280;30146;52.268;20.944;2024-02-23T05:04:06;98338.48;;;7.99;71.43
44441;BME280;30146;52.268;20.944;2024-02-23T05:06:35;98341.69;;;7.99;71.41
44441;BME280;30146;52.268;20.944;2024-02-23T05:09:09;98344.07;;;7.99;71.65
44441;BME280;30146;52.268;20.944;2024-02-23T05:11:40;98344.63;;;7.98;71.63
44441;BME280;30146;52.268;20.944;2024-02-23T05:14:10;98345.15;;;7.97;71.98
44441;BME280;30146;52.268;20.944;2024-02-23T05:16:39;98346.83;;;7.99;71.82
44441;BME280;30146;52.268;20.944;2024-02-23T05:19:09;98353.64;;;7.98;71.93
44441;BME280;30146;52.268;20.944;2024-02-23T05:21:41;98353.95;;;7.99;72.00
44441;BME280;30146;52.268;20.944;2024-02-23T05:24:14;98361.12;;;7.98;72.09
44441;BME280;30146;52.268;20.944;2024-02-23T05:26:43;98359.59;;;7.98;72.38
44441;BME280;30146;52.268;20.944;2024-02-23T05:29:13;98363.83;;;7.99;72.44
44441;BME280;30146;52.268;20.944;2024-02-23T05:31:47;98367.86;;;8.00;72.65
44441;BME280;30146;52.268;20.944;2024-02-23T05:34:17;98369.25;;;7.99;72.64
44441;BME280;30146;52.268;20.944;2024-02-23T05:36:47;98367.02;;;8.00;72.77
44441;BME280;30146;52.268;20.944;2024-02-23T05:39:17;98369.08;;;7.99;72.93
44441;BME280;30146;52.268;20.944;2024-02-23T05:41:47;98374.69;;;7.99;73.07
44441;BME280;30146;52.268;20.944;2024-02-23T05:44:20;98380.80;;;8.00;72.99
44441;BME280;30146;52.268;20.944;2024-02-23T05:46:53;98380.98;;;8.00;73.22
44441;BME280;30146;52.268;20.944;2024-02-23T05:49:23;98395.28;;;7.99;73.24
44441;BME280;30146;52.268;20.944;2024-02-23T05:51:53;98399.02;;;8.00;73.37
44441;BME280;30146;52.268;20.944;2024-02-23T05:54:25;98391.63;;;7.97;73.32
44441;BME280;30146;52.268;20.944;2024-02-23T05:56:58;98397.70;;;7.98;73.41
44441;BME280;30146;52.268;20.944;2024-02-23T05:59:29;98395.58;;;8.00;73.80
44441;BME280;30146;52.268;20.944;2024-02-23T06:01:59;98402.58;;;8.00;73.85
44441;BME280;30146;52.268;20.944;2024-02-23T06:04:29;98409.88;;;8.00;73.94
44441;BME280;30146;52.268;20.944;2024-02-23T06:07:00;98413.83;;;8.00;73.84
44441;BME280;30146;52.268;20.944;2024-02-23T06:09:30;98420.77;;;8.00;74.02
44441;BME280;30146;52.268;20.944;2024-02-23T06:11:59;98422.31;;;8.00;74.16
44441;BME280;30146;52.268;20.944;2024-02-23T06:14:29;98425.36;;;8.00;74.30
44441;BME280;30146;52.268;20.944;2024-02-23T06:16:59;98425.86;;;8.00;74.45
44441;BME280;30146;52.268;20.944;2024-02-23T06:19:29;98425.02;;;8.01;74.60
44441;BME280;30146;52.268;20.944;2024-02-23T06:22:01;98424.14;;;8.01;74.64
44441;BME280;30146;52.268;20.944;2024-02-23T06:24:31;98427.00;;;8.03;74.64
44441;BME280;30146;52.268;20.944;2024-02-23T06:27:01;98429.89;;;8.03;74.77
44441;BME280;30146;52.268;20.944;2024-02-23T06:29:31;98431.79;;;8.02;74.65
44441;BME280;30146;52.268;20.944;2024-02-23T06:32:01;98435.23;;;8.01;74.88
44441;BME280;30146;52.268;20.944;2024-02-23T06:34:31;98443.20;;;8.01;74.91
44441;BME280;30146;52.268;20.944;2024-02-23T06:37:02;98446.23;;;8.03;75.23
44441;BME280;30146;52.268;20.944;2024-02-23T06:39:31;98449.42;;;8.04;75.42
44441;BME280;30146;52.268;20.944;2024-02-23T06:42:00;98450.71;;;8.06;75.47
44441;BME280;30146;52.268;20.944;2024-02-23T06:44:42;98456.27;;;8.09;75.46
44441;BME280;30146;52.268;20.944;2024-02-23T06:47:11;98456.23;;;8.09;75.54
44441;BME280;30146;52.268;20.944;2024-02-23T06:49:42;98455.48;;;8.12;75.57
44441;BME280;30146;52.268;20.944;2024-02-23T06:52:12;98462.59;;;8.13;75.70
44441;BME280;30146;52.268;20.944;2024-02-23T06:54:42;98458.29;;;8.15;75.80
44441;BME280;30146;52.268;20.944;2024-02-23T06:57:11;98460.77;;;8.17;75.87
44441;BME280;30146;52.268;20.944;2024-02-23T06:59:41;98465.44;;;8.20;75.83
44441;BME280;30146;52.268;20.944;2024-02-23T07:02:10;98464.54;;;8.22;76.01
44441;BME280;30146;52.268;20.944;2024-02-23T07:04:39;98471.89;;;8.26;76.09
44441;BME280;30146;52.268;20.944;2024-02-23T07:07:10;98477.55;;;8.30;76.05
44441;BME280;30146;52.268;20.944;2024-02-23T07:09:40;98481.08;;;8.32;75.99
44441;BME280;30146;52.268;20.944;2024-02-23T07:12:09;98482.27;;;8.32;75.84
44441;BME280;30146;52.268;20.944;2024-02-23T07:14:42;98482.27;;;8.33;75.89
44441;BME280;30146;52.268;20.944;2024-02-23T07:17:11;98490.02;;;8.36;76.29
44441;BME280;30146;52.268;20.944;2024-02-23T07:19:40;98493.52;;;8.38;76.01
44441;BME280;30146;52.268;20.944;2024-02-23T07:22:11;98496.37;;;8.39;76.18
44441;BME280;30146;52.268;20.944;2024-02-23T07:24:40;98496.17;;;8.40;76.08
44441;BME280;30146;52.268;20.944;2024-02-23T07:27:10;98497.21;;;8.40;76.07
44441;BME280;30146;52.268;20.944;2024-02-23T07:29:40;98503.81;;;8.41;76.30
44441;BME280;30146;52.268;20.944;2024-02-23T07:32:09;98501.55;;;8.43;76.31
44441;BME280;30146;52.268;20.944;2024-02-23T07:34:39;98506.27;;;8.45;76.50
44441;BME280;30146;52.268;20.944;2024-02-23T07:37:11;98506.89;;;8.47;76.38
44441;BME280;30146;52.268;20.944;2024-02-23T07:39:40;98507.71;;;8.48;76.42
44441;BME280;30146;52.268;20.944;2024-02-23T07:42:10;98515.17;;;8.49;76.37
44441;BME280;30146;52.268;20.944;2024-02-23T07:44:42;98513.41;;;8.51;76.60
44441;BME280;30146;52.268;20.944;2024-02-23T07:47:13;98513.88;;;8.52;76.49
44441;BME280;30146;52.268;20.944;2024-02-23T07:49:45;98521.86;;;8.53;76.58
44441;BME280;30146;52.268;20.944;2024-02-23T07:52:14;98530.64;;;8.56;76.70
44441;BME280;30146;52.268;20.944;2024-02-23T07:54:44;98533.30;;;8.58;76.69
44441;BME280;30146;52.268;20.944;2024-02-23T07:57:13;98537.34;;;8.59;76.73
44441;BME280;30146;52.268;20.944;2024-02-23T08:00:03;98538.49;;;8.61;76.68
44441;BME280;30146;52.268;20.944;2024-02-23T08:02:38;98543.69;;;8.63;76.87
44441;BME280;30146;52.268;20.944;2024-02-23T08:05:09;98548.77;;;8.65;76.75
44441;BME280;30146;52.268;20.944;2024-02-23T08:07:39;98552.29;;;8.66;76.79
44441;BME280;30146;52.268;20.944;2024-02-23T08:10:10;98553.45;;;8.67;76.72
44441;BME280;30146;52.268;20.944;2024-02-23T08:12:41;98555.95;;;8.69;76.87
44441;BME280;30146;52.268;20.944;2024-02-23T08:15:11;98556.25;;;8.70;76.75
44441;BME280;30146;52.268;20.944;2024-02-23T08:17:41;98559.30;;;8.71;76.88
44441;BME280;30146;52.268;20.944;2024-02-23T08:20:12;98563.14;;;8.74;77.08
44441;BME280;30146;52.268;20.944;2024-02-23T08:22:42;98563.91;;;8.76;76.90
44441;BME280;30146;52.268;20.944;2024-02-23T08:25:11;98571.84;;;8.79;77.10
44441;BME280;30146;52.268;20.944;2024-02-23T08:27:42;98575.73;;;8.80;76.94
44441;BME280;30146;52.268;20.944;2024-02-23T08:30:12;98584.49;;;8.83;77.13
44441;BME280;30146;52.268;20.944;2024-02-23T08:32:42;98580.85;;;8.85;76.99
44441;BME280;30146;52.268;20.944;2024-02-23T08:35:13;98585.70;;;8.88;77.20
44441;BME280;30146;52.268;20.944;2024-02-23T08:37:44;98586.30;;;8.91;77.38
44441;BME280;30146;52.268;20.944;2024-02-23T08:40:14;98593.52;;;8.94;77.51
44441;BME280;30146;52.268;20.944;2024-02-23T08:42:44;98594.39;;;8.99;77.24
44441;BME280;30146;52.268;20.944;2024-02-23T08:45:15;98596.70;;;9.02;77.35
44441;BME280;30146;52.268;20.944;2024-02-23T08:47:45;98601.55;;;9.04;77.27
44441;BME280;30146;52.268;20.944;2024-02-23T08:50:15;98606.70;;;9.09;77.36
44441;BME280;30146;52.268;20.944;2024-02-23T08:52:44;98613.86;;;9.14;77.50
44441;BME280;30146;52.268;20.944;2024-02-23T08:55:14;98614.58;;;9.19;77.43
44441;BME280;30146;52.268;20.944;2024-02-23T08:57:44;98616.17;;;9.22;77.24
44441;BME280;30146;52.268;20.944;2024-02-23T09:00:14;98617.62;;;9.25;77.29
44441;BME280;30146;52.268;20.944;2024-02-23T09:02:45;98616.77;;;9.30;77.33
44441;BME280;30146;52.268;20.944;2024-02-23T09:05:15;98619.55;;;9.34;77.28
44441;BME280;30146;52.268;20.944;2024-02-23T09:07:45;98627.70;;;9.40;77.26
44441;BME280;30146;52.268;20.944;2024-02-23T09:10:14;98626.12;;;9.47;77.32
44441;BME280;30146;52.268;20.944;2024-02-23T09:12:44;98627.16;;;9.52;77.36
44441;BME280;30146;52.268;20.944;2024-02-23T09:15:13;98622.84;;;9.58;77.23
44441;BME280;30146;52.268;20.944;2024-02-23T09:17:45;98622.76;;;9.66;77.27
44441;BME280;30146;52.268;20.944;2024-02-23T09:20:15;98625.87;;;9.75;77.56
44441;BME280;30146;52.268;20.944;2024-02-23T09:22:45;98631.63;;;9.87;77.71
44441;BME280;30146;52.268;20.944;2024-02-23T09:25:15;98630.80;;;10.01;77.67
44441;BME280;30146;52.268;20.944;2024-02-23T09:27:44;98634.08;;;10.15;77.70
44441;BME280;30146;52.268;20.944;2024-02-23T09:30:14;98638.92;;;10.28;77.66
44441;BME280;30146;52.268;20.944;2024-02-23T09:32:44;98645.69;;;10.40;77.56
44441;BME280;30146;52.268;20.944;2024-02-23T09:35:14;98636.11;;;10.50;77.17
44441;BME280;30146;52.268;20.944;2024-02-23T09:37:43;98644.14;;;10.59;77.04
44441;BME280;30146;52.268;20.944;2024-02-23T09:40:13;98646.49;;;10.65;76.71
44441;BME280;30146;52.268;20.944;2024-02-23T09:42:43;98644.80;;;10.69;76.66
44441;BME280;30146;52.268;20.944;2024-02-23T09:45:21;98655.08;;;10.73;76.15
44441;BME280;30146;52.268;20.944;2024-02-23T09:47:58;98653.54;;;10.73;76.18
44441;BME280;30146;52.268;20.944;2024-02-23T09:50:30;98660.64;;;10.75;76.10
44441;BME280;30146;52.268;20.944;2024-02-23T09:53:01;98660.31;;;10.74;75.99
44441;BME280;30146;52.268;20.944;2024-02-23T09:55:30;98661.35;;;10.74;76.04
44441;BME280;30146;52.268;20.944;2024-02-23T09:58:00;98670.43;;;10.74;75.78
44441;BME280;30146;52.268;20.944;2024-02-23T10:00:32;98672.41;;;10.71;75.84
44441;BME280;30146;52.268;20.944;2024-02-23T10:03:03;98678.77;;;10.71;75.86
44441;BME280;30146;52.268;20.944;2024-02-23T10:05:33;98679.61;;;10.70;76.00
44441;BME280;30146;52.268;20.944;2024-02-23T10:08:07;98677.77;;;10.69;75.77
44441;BME280;30146;52.268;20.944;2024-02-23T10:10:39;98679.65;;;10.70;75.67
44441;BME280;30146;52.268;20.944;2024-02-23T10:13:10;98679.17;;;10.68;75.90
44441;BME280;30146;52.268;20.944;2024-02-23T10:15:39;98679.33;;;10.69;76.01
44441;BME280;30146;52.268;20.944;2024-02-23T10:18:31;98686.92;;;10.71;75.81
44441;BME280;30146;52.268;20.944;2024-02-23T10:21:01;98690.93;;;10.74;76.13
44441;BME280;30146;52.268;20.944;2024-02-23T10:23:31;98692.55;;;10.76;76.05
44441;BME280;30146;52.268;20.944;2024-02-23T10:26:06;98694.20;;;10.78;75.98
44441;BME280;30146;52.268;20.944;2024-02-23T10:28:36;98701.59;;;10.82;76.06
44441;BME280;30146;52.268;20.944;2024-02-23T10:31:06;98702.62;;;10.82;75.84
44441;BME280;30146;52.268;20.944;2024-02-23T10:33:40;98707.27;;;10.80;75.83
44441;BME280;30146;52.268;20.944;2024-02-23T10:36:10;98709.66;;;10.81;75.90
44441;BME280;30146;52.268;20.944;2024-02-23T10:38:40;98705.52;;;10.82;76.06
44441;BME280;30146;52.268;20.944;2024-02-23T10:41:14;98709.65;;;10.81;75.83
44441;BME280;30146;52.268;20.944;2024-02-23T10:43:48;98714.10;;;10.81;75.82
44441;BME280;30146;52.268;20.944;2024-02-23T10:46:18;98718.70;;;10.81;75.99
44441;BME280;30146;52.268;20.944;2024-02-23T10:48:47;98721.74;;;10.82;75.98
44441;BME280;30146;52.268;20.944;2024-02-23T10:51:17;98725.81;;;10.83;76.04
44441;BME280;30146;52.268;20.944;2024-02-23T10:53:49;98730.57;;;10.84;75.89
44441;BME280;30146;52.268;20.944;2024-02-23T10:56:19;98728.09;;;10.82;75.72
44441;BME280;30146;52.268;20.944;2024-02-23T10:58:50;98731.58;;;10.79;75.72
44441;BME280;30146;52.268;20.944;2024-02-23T11:01:20;98734.52;;;10.78;75.62
44441;BME280;30146;52.268;20.944;2024-02-23T11:03:51;98741.50;;;10.79;75.88
44441;BME280;30146;52.268;20.944;2024-02-23T11:06:23;98742.67;;;10.80;75.98
44441;BME280;30146;52.268;20.944;2024-02-23T11:09:05;98744.02;;;10.81;75.93
44441;BME280;30146;52.268;20.944;2024-02-23T11:11:37;98747.28;;;10.80;75.83
44441;BME280;30146;52.268;20.944;2024-02-23T11:14:08;98750.83;;;10.82;75.93
44441;BME280;30146;52.268;20.944;2024-02-23T11:16:39;98754.90;;;10.82;76.03
44441;BME280;30146;52.268;20.944;2024-02-23T11:19:10;98756.09;;;10.82;76.06
44441;BME280;30146;52.268;20.944;2024-02-23T11:21:40;98759.30;;;10.83;76.20
44441;BME280;30146;52.268;20.944;2024-02-23T11:24:09;98763.35;;;10.85;76.05
44441;BME280;30146;52.268;20.944;2024-02-23T11:26:44;98767.13;;;10.84;75.92
44441;BME280;30146;52.268;20.944;2024-02-23T11:29:17;98768.33;;;10.84;75.99
44441;BME280;30146;52.268;20.944;2024-02-23T11:31:47;98770.73;;;10.84;75.89
44441;BME280;30146;52.268;20.944;2024-02-23T11:34:22;98771.56;;;10.84;76.00
44441;BME280;30146;52.268;20.944;2024-02-23T11:36:53;98774.44;;;10.86;76.14
44441;BME280;30146;52.268;20.944;2024-02-23T11:39:34;98777.86;;;10.85;75.95
44441;BME280;30146;52.268;20.944;2024-02-23T11:42:05;98782.32;;;10.85;76.00
44441;BME280;30146;52.268;20.944;2024-02-23T11:44:34;98785.42;;;10.84;76.00
44441;BME280;30146;52.268;20.944;2024-02-23T11:47:04;98790.50;;;10.86;76.14
44441;BME280;30146;52.268;20.944;2024-02-23T11:49:33;98792.08;;;10.89;76.31
44441;BME280;30146;52.268;20.944;2024-02-23T11:52:03;98796.02;;;10.94;76.47
44441;BME280;30146;52.268;20.944;2024-02-23T11:54:33;98794.81;;;10.94;76.18
44441;BME280;30146;52.268;20.944;2024-02-23T11:57:02;98797.30;;;10.96;76.36
44441;BME280;30146;52.268;20.944;2024-02-23T11:59:32;98804.06;;;10.99;76.44
44441;BME280;30146;52.268;20.944;2024-02-23T12:02:01;98812.31;;;11.02;76.53
44441;BME280;30146;52.268;20.944;2024-02-23T12:04:33;98814.59;;;11.05;76.52
44441;BME280;30146;52.268;20.944;2024-02-23T12:07:03;98823.45;;;11.06;76.38
44441;BME280;30146;52.268;20.944;2024-02-23T12:09:33;98824.10;;;11.07;76.42
44441;BME280;30146;52.268;20.944;2024-02-23T12:12:02;98826.90;;;11.10;76.52
44441;BME280;30146;52.268;20.944;2024-02-23T12:14:36;98825.67;;;11.11;76.34
44441;BME280;30146;52.268;20.944;2024-02-23T12:17:06;98827.69;;;11.12;76.28
44441;BME280;30146;52.268;20.944;2024-02-23T12:19:39;98826.09;;;11.14;76.30
44441;BME280;30146;52.268;20.944;2024-02-23T12:22:09;98832.34;;;11.16;76.48
44441;BME280;30146;52.268;20.944;2024-02-23T12:24:39;98834.30;;;11.18;76.42
44441;BME280;30146;52.268;20.944;2024-02-23T12:27:09;98833.41;;;11.19;76.26
44441;BME280;30146;52.268;20.944;2024-02-23T12:29:39;98835.11;;;11.24;76.32
44441;BME280;30146;52.268;20.944;2024-02-23T12:32:09;98837.98;;;11.30;76.73
44441;BME280;30146;52.268;20.944;2024-02-23T12:34:39;98843.90;;;11.37;76.67
44441;BME280;30146;52.268;20.944;2024-02-23T12:37:09;98844.46;;;11.40;76.60
44441;BME280;30146;52.268;20.944;2024-02-23T12:39:39;98843.48;;;11.43;76.45
44441;BME280;30146;52.268;20.944;2024-02-23T12:42:08;98850.03;;;11.47;76.42
44441;BME280;30146;52.268;20.944;2024-02-23T12:44:38;98852.46;;;11.46;76.17
44441;BME280;30146;52.268;20.944;2024-02-23T12:47:07;98850.17;;;11.43;75.90
44441;BME280;30146;52.268;20.944;2024-02-23T12:49:37;98848.95;;;11.44;76.13
44441;BME280;30146;52.268;20.944;2024-02-23T12:52:23;98853.27;;;11.42;75.94
44441;BME280;30146;52.268;20.944;2024-02-23T12:54:52;98854.89;;;11.40;75.86
44441;BME280;30146;52.268;20.944;2024-02-23T12:57:22;98857.85;;;11.39;76.07
44441;BME280;30146;52.268;20.944;2024-02-23T12:59:51;98855.15;;;11.38;75.92
44441;BME280;30146;52.268;20.944;2024-02-23T13:02:22;98861.05;;;11.35;75.76
44441;BME280;30146;52.268;20.944;2024-02-23T13:04:52;98865.75;;;11.33;75.87
44441;BME280;30146;52.268;20.944;2024-02-23T13:07:24;98870.88;;;11.33;75.89
44441;BME280;30146;52.268;20.944;2024-02-23T13:09:58;98873.01;;;11.31;75.99
44441;BME280;30146;52.268;20.944;2024-02-23T13:12:28;98871.57;;;11.33;76.15
44441;BME280;30146;52.268;20.944;2024-02-23T13:14:58;98868.61;;;11.35;76.19
44441;BME280;30146;52.268;20.944;2024-02-23T13:17:27;98872.52;;;11.35;76.12